Carlos Lopez

Chief Scout - America de Cali
20 Nov 2027
Saturday
Process

Personality

Adaptability (13) Ambition (1) Controversy (7) Loyalty (18) Pressure (17) Professionalism (1) Sportsmanship (9) Temperament (15)

Profile

Coaching Style Democratic
License National B
Determination 9
Man Management 7
Motivating 8
Discipline 5
Job Satisfaction
100%
Fatigue
0%
Role Chief Scout
Wage 91.4K p/w
Contract 14.03.2028

Performance

Behaviour Good
Training Effectiveness
51%
Player Development
35%
Injury Prevention
60%
Tactical Implementation
65%

Recent Events

Assessed a player now
Attended a recruitment meeting now
Recommended a transfer target now
Recommended a transfer target now
Recommended a transfer target now
Recommended a transfer target now
Recommended a transfer target now
Assessed a player 7d ago

Currently Monitoring

229
Player Club Status Ability Confidence Watched Last Observed Latest Vote
Martín Ojeda Orlando City Active 125 / 138 40% 9 16.11.2027 -
Vegard Erlien Tromso Active 119 / 114 40% 2 16.11.2027 -
Gonzalo Plata Rosenborg Active 148 / 135 40% 6 15.11.2027 -
Milton Giménez Defensa y Justicia Active 118 / 134 40% 3 15.11.2027 -
Luca Langoni New England Revolution Active 143 / 139 40% 11 14.11.2027 -
Leonardo Campana New England Revolution Active 118 / 122 40% 2 14.11.2027 -
Nicolás Fernández Belgrano Active 119 / 117 40% 10 12.11.2027 -
Camilo Durán Bloemfontein Celtic Active 140 / 128 40% 4 12.11.2027 -
Tomás Chancalay Minnesota United FC Active 135 / 123 40% 2 11.11.2027 -
Arthur Cabral Botafogo Active 142 / 120 40% 4 11.11.2027 -
Matías Vargas Ceará Active 122 / 122 40% 4 10.11.2027 -
Theo Corbeanu Portland Timbers Active 129 / 118 40% 3 10.11.2027 -
Wessam Abou Ali Columbus Crew Active 135 / 127 40% 3 08.11.2027 -
Jesus Ferreira Seattle Sounders Active 122 / 123 40% 2 05.11.2027 -
Yuri Alberto Corinthians Active 136 / 139 40% 2 03.11.2027 -
Kévin Denkey FC Cincinnati Active 119 / 124 40% 6 02.11.2027 -
Agustín Anello Philadelphia Union Active 121 / 130 40% 4 29.10.2027 -
Liel Abada Charlotte Football Club Active 126 / 141 40% 5 26.10.2027 -
Facundo Colidio Vasco da Gama Active 129 / 128 40% 1 23.10.2027 -
Rafael Navarro St. Louis CITY SC Active 130 / 135 40% 4 21.10.2027 -
Kelvin Yeboah Minnesota United FC Active 142 / 127 40% 1 21.10.2027 -
Sergio Falcao Cortulua Active 113 / 115 40% 3 20.10.2027 -
Alexis Cuello San Lorenzo Active 126 / 127 40% 6 19.10.2027 -
Louis Munteanu DC United Active 124 / 134 40% 4 16.10.2027 -
Sebastián Villa Boca Juniors Rejected 134 / 126 40% 3 15.10.2027 Reject
Marcus Ingvartsen San Diego Football Club Active 124 / 124 40% 3 15.10.2027 -
Duncan McGuire Houston Dynamo Active 130 / 126 40% 5 14.10.2027 -
Talles Magno New York City Active 146 / 131 40% 6 10.10.2027 -
Bénie Traoré New York City Active 116 / 119 40% 2 07.10.2027 -
Bruno Barticciotto Talleres Active 117 / 134 40% 1 07.10.2027 -
Tadeo Allende Inter Miami CF Active 115 / 115 40% 2 04.10.2027 -
Luciano Herrera Newell's Old Boys Active 123 / 128 40% 1 26.09.2027 -
Edwuin Cetré Estudiantes Active 135 / 131 40% 7 24.09.2027 -
Bongokuhle Hlongwane Minnesota United FC Active 138 / 122 40% 1 20.09.2027 -
Timo Werner San Jose Earthquakes Active 139 / 119 40% 3 17.09.2027 -
João Klauss LA Galaxy Active 117 / 125 40% 2 16.09.2027 -
Tomás Conechny Racing Club Active 117 / 126 40% 3 12.09.2027 -
Ignacio Russo Tigre Active 125 / 129 40% 5 06.09.2027 -
Lewis Morgan Toronto FC Active 127 / 125 40% 2 06.09.2027 -
Morgan Guilavogui Real Salt Lake Active 126 / 118 40% 5 04.09.2027 -
Stav Toriel Hapoel Tel Aviv Active 117 / 127 40% 3 23.08.2027 -
Mathias Pereira Lage St. Pauli Active 134 / 129 40% 3 21.08.2027 -
John Yeboah Venezia Active 129 / 136 40% 1 20.08.2027 -
Zakaria Aboukhlal Torino Active 156 / 150 40% 4 18.08.2027 -
Amin Sarr Hellas Verona Active 126 / 124 40% 1 18.08.2027 -
Santiago Pierotti Lecce Active 124 / 145 40% 1 16.08.2027 -
Mateo Pellegrino Fiorentina Active 129 / 151 40% 6 15.08.2027 -
Luca Orellano Atlético Madrid Active 144 / 153 40% 1 15.08.2027 -
Santiago Sanchez Santa Fe Active 147 / 128 40% 5 14.08.2027 -
Keinan Davis Udinese Active 147 / 137 40% 3 14.08.2027 -
Jens Odgaard Bologna Active 160 / 156 40% 1 13.08.2027 -
Jérémy Le Douaron Palermo Active 113 / 124 40% 1 10.08.2027 -
Sam Greenwood Bristol City Active 127 / 138 40% 1 09.08.2027 -
Rodrigo Muniz Fulham Active 126 / 132 40% 4 08.08.2027 -
Youssef En-Nesyri Al-Ittihad Active 158 / 130 40% 9 06.08.2027 -
Mohamed-Ali Cho Hull City Active 145 / 138 40% 3 06.08.2027 -
Taiwo Awoniyi Coventry City Active 136 / 153 40% 5 03.08.2027 -
Gianluca Scamacca Atalanta Active 157 / 151 40% 9 03.08.2027 -
Mihailo Ivanović Millwall Active 142 / 140 40% 3 02.08.2027 -
Rumarn Burrell Queens Park Rangers Active 138 / 118 40% 3 01.08.2027 -
Andrea Pinamonti Lazio Active 141 / 152 40% 6 30.07.2027 -
Alejandro Piedrahita Deportivo Pereira Active 115 / 135 40% 2 29.07.2027 -
Tommy Conway Middlesbrough Active 125 / 130 40% 10 29.07.2027 -
Elijah Adebayo Luton Town Active 117 / 112 40% 5 28.07.2027 -
Federico Girotti Alianza Lima Active 117 / 131 40% 3 27.07.2027 -
Mathias Jørgensen Blackburn Rovers Active 108 / 115 40% 1 27.07.2027 -
Domagoj Drožđek Tractor Active 127 / 123 40% 6 26.07.2027 -
Lamine Cissé Peterborough United Active 130 / 114 40% 4 25.07.2027 -
Eddie Nketiah Crystal Palace Active 135 / 132 40% 2 25.07.2027 -
George Hirst Stoke City Active 132 / 125 40% 5 23.07.2027 -
Jarrod Bowen West Ham United Active 143 / 156 40% 9 21.07.2027 -
Yousef Salech Cardiff City Active 119 / 122 40% 3 19.07.2027 -
Brennan Johnson Everton Active 155 / 146 40% 1 19.07.2027 -
Oli McBurnie Hull City Active 141 / 128 40% 6 16.07.2027 -
Callum O'Hare Sheffield United Active 147 / 146 40% 3 16.07.2027 -
Nikola Vlašić Torino Active 153 / 140 40% 5 13.07.2027 -
Jovon Makama Norwich City Active 118 / 113 40% 11 12.07.2027 -
Gali Balanta Deportes Tolima Active 100 / 92 48% 1 12.07.2027 -
Mattia Felici Cagliari Active 117 / 140 40% 2 11.07.2027 -
Giacomo Raspadori Atalanta Active 140 / 159 40% 2 09.07.2027 -
Fábio Carvalho Brentford Active 130 / 149 40% 4 08.07.2027 -
Žan Vipotnik Swansea City Active 117 / 125 40% 1 05.07.2027 -
Konan N'Dri Lecce Active 111 / 129 40% 5 26.06.2027 -
Dávid Strelec Middlesbrough Active 157 / 133 40% 5 24.06.2027 -
Victor Torp Coventry City Active 128 / 119 40% 1 16.06.2027 -
Ross Stewart Southampton Active 119 / 132 40% 1 08.06.2027 -
Joe Gelhardt Hull City Active 116 / 141 40% 1 07.06.2027 -
Adrien Truffert Bournemouth Active 143 / 166 40% 1 31.05.2027 -
Olivier Boscagli Brighton Active 146 / 145 40% 1 31.05.2027 -
Viktor Johansson Stoke City Active 155 / 136 40% 2 30.05.2027 -
Đorđe Petrović Bournemouth Active 146 / 136 40% 3 30.05.2027 -
Dale Taylor Blackpool Active 94 / 114 40% 3 26.05.2027 -
Masoud Ebrahimi Sepahan Active 147 / 123 40% 8 18.05.2027 -
Egil Selvik Watford Active 129 / 137 40% 3 18.05.2027 -
Noah Okafor Leeds United Active 159 / 134 40% 1 18.05.2027 -
Mees Rijks Bristol Rovers Active 104 / 127 40% 1 17.05.2027 -
Charles De Ketelaere Atalanta Active 160 / 149 40% 3 16.05.2027 -
Arijanet Murić Sassuolo Active 147 / 142 40% 1 13.05.2027 -
Lorenzo Palmisani Frosinone Active 121 / 129 40% 1 13.05.2027 -
Sam Surridge Leeds United Active 115 / 144 40% 1 07.05.2027 -
Pablo Felipe West Ham United Active 117 / 125 40% 1 06.05.2027 -
Gonzalo Fulham Active 151 / 147 40% 5 04.05.2027 -
Josh Keeley Luton Town Active 141 / 113 40% 2 03.05.2027 -
Sławomir Abramowicz Jagiellonia Active 142 / 141 40% 2 03.05.2027 -
Cameron Archer Southampton Active 118 / 139 40% 3 03.05.2027 -
Kostantis Tzolakis Hull City Active 126 / 142 40% 1 25.04.2027 -
Hwang Hee-Chan Wolverhampton Active 117 / 126 40% 4 24.04.2027 -
Zian Flemming Ipswich Town Active 120 / 134 40% 2 20.04.2027 -
Lucas Bruera Carabobo Active 114 / 122 40% 1 19.04.2027 -
Giorgi Kvernadze Frosinone Active 109 / 126 40% 1 18.04.2027 -
Maduka Okoye Udinese Active 135 / 142 40% 1 17.04.2027 -
Luciano Jachfe Nueva Chicago Active 121 / 116 40% 1 11.04.2027 -
Daniel Iversen Preston Active 116 / 138 40% 1 11.04.2027 -
Diego Enríquez Sporting Cristal Active 128 / 125 40% 1 10.04.2027 -
Wilson Isidor Sunderland Active 150 / 134 40% 1 08.04.2027 -
Bento Lokomotiv Moscow Active 141 / 149 40% 2 04.04.2027 -
Marco Carnesecchi Torino Active 142 / 156 40% 2 30.03.2027 -
Anthony Patterson Wrexham Active 126 / 145 40% 1 29.03.2027 -
Fran Vieites Exeter City Active 137 / 128 40% 1 29.03.2027 -
Michael Cooper Sheffield United Active 112 / 135 40% 3 27.03.2027 -
Riccardo Gagno Vicenza Active 107 / 118 40% 1 27.03.2027 -
Tyrese Campbell Sheffield United Active 111 / 136 40% 2 24.03.2027 -
Dilan Ortíz Ufa Active 123 / 118 40% 1 24.03.2027 -
George Wickens Lincoln City Active 111 / 120 40% 2 22.03.2027 -
Aune Heggebø West Bromwich Albion Active 116 / 139 40% 6 20.03.2027 -
Jay Stansfield Birmingham Active 111 / 137 40% 1 14.03.2027 -
Bertuğ Yıldırım Basaksehir Active 111 / 130 40% 1 12.03.2027 -
Radek Vítek Middlesbrough Active 130 / 135 40% 1 12.03.2027 -
Nicolò Zaniolo Udinese Active 128 / 150 40% 2 04.03.2027 -
Zeki Amdouni Burnley Active 117 / 123 40% 2 02.03.2027 -
Ivan Toney Al-Ahli Active 162 / 166 40% 1 24.02.2027 -
Kerem Aktürkoğlu Fenerbahce Active 153 / 153 40% 3 17.02.2027 -
Prince Adu Kwabena Viktoria Plzen Active 118 / 119 40% 1 16.02.2027 -
Beau Reus Waasland-Beveren Active 118 / 143 40% 1 12.02.2027 -
Grégoire Coudert Burnley Active 136 / 124 40% 1 12.02.2027 -
Liam Delap Nottingham Forest Active 155 / 134 40% 2 07.02.2027 -
Ollie Watkins Al-Hilal Active 173 / 133 40% 2 06.02.2027 -
Patrick Agyemang Derby County Active 108 / 126 40% 1 06.02.2027 -
Roberto Fernández Braga Active 129 / 148 40% 3 02.02.2027 -
Adriano Bertaccini Anderlecht Active 107 / 117 40% 7 21.01.2027 -
Yoshan Valois Lanús Active 116 / 125 40% 1 19.01.2027 -
Amir Hossein Hosseinzadeh Tractor Active 150 / 115 40% 1 18.01.2027 -
Bertrand Traoré Sunderland Active 119 / 145 40% 1 17.01.2027 -
Miguel Merentiel Boca Juniors Active 133 / 122 40% 4 11.01.2027 -
Ammar Ramadan DAC Dunajska Streda Active 121 / 125 40% 3 09.01.2027 -
Danylo Sikan Anderlecht Active 127 / 113 40% 2 06.01.2027 -
Pablo Rodríguez Lech Active 110 / 108 40% 1 05.01.2027 -
Jan Hubocan Ferencvaros Active 122 / 131 40% 1 04.01.2027 -
Camilo Machado Madryn Active 114 / 105 40% 3 28.12.2026 -
Abu Kamara Portsmouth Active 107 / 108 40% 1 28.12.2026 -
Nicolás Cordero Aldosivi Active 113 / 111 40% 3 27.12.2026 -
Matías Contrera Northampton Town Active 86 / 117 40% 1 09.12.2026 -
Juan-José Perea Zurich Active 138 / 135 40% 2 07.12.2026 -
Luca Martínez Dupuy Godoy Cruz Active 130 / 114 40% 2 03.12.2026 -
Jerome Karelse Golden Arrows Active 105 / 116 40% 1 02.12.2026 -
Jhon Aponza Boca Juniors Active 105 / 118 40% 1 02.12.2026 -
Toni Fruk Valladolid Active 132 / 133 66% 1 01.12.2026 Approve
Erick Sánchez Valladolid Active 139 / 139 68% 1 01.12.2026 Approve
Luiz Henrique VfB Stuttgart Active 142 / 143 68% 1 01.12.2026 Approve
Stanislav Agkatsev TSG Hoffenheim Negotiating 132 / 133 66% 1 01.12.2026 Approve
Mao Hosoya Manchester City Active 134 / 135 67% 1 01.12.2026 Approve
Marquinhos Spartak Moscow Active 139 / 130 40% 1 28.11.2026 -
Alan Lescano Argentinos Juniors Active 118 / 124 40% 1 28.11.2026 -
Rafael Santos Borré River Plate Active 121 / 131 40% 1 26.11.2026 -
David Miculescu FCSB Active 134 / 126 40% 2 24.11.2026 -
Ignacio Ramírez Newell's Old Boys Active 117 / 124 40% 4 22.11.2026 -
Matías Fernández Independiente Rivadavia Active 122 / 115 40% 1 22.11.2026 -
David Barbona Defensa y Justicia Active 135 / 132 40% 3 21.11.2026 -
Gastón Benedetti Estudiantes Active 112 / 134 40% 1 19.11.2026 -
Jherson Mosquera Newell's Old Boys Active 136 / 121 40% 2 15.11.2026 -
Juan Bisanz Huracán Active 120 / 120 40% 2 15.11.2026 -
Troy Parrott Betis Active 136 / 134 40% 2 11.11.2026 -
Enzo Copetti Rosario Central Active 123 / 117 40% 2 10.11.2026 -
Jonás Acevedo Instituto Active 108 / 123 40% 2 02.11.2026 -
Ignacio Abraham Banfield Active 121 / 114 40% 2 02.11.2026 -
Gianluca Ferrari Atlético Tucumán Active 111 / 117 40% 1 02.11.2026 Needs More Info
Jaminton Campaz Rosario Central Active 121 / 120 40% 1 30.10.2026 -
Carlos Álvarez Club America Active 134 / 129 40% 1 28.10.2026 -
Christian Rivera Pachuca Active 121 / 118 40% 1 28.10.2026 -
Diber Cambindo Leon Active 124 / 136 40% 4 27.10.2026 -
Diego Rossi Monterrey Active 144 / 132 40% 2 24.10.2026 -
Alexander Díaz Deportivo Riestra Active 112 / 119 40% 1 22.10.2026 -
Tiziano Dornell Almagro Active 117 / 110 40% 1 22.10.2026 -
Aarón Molinas Defensa y Justicia Active 126 / 130 40% 1 22.10.2026 -
Thiago Calone All Boys Active 99 / 108 40% 1 13.10.2026 -
Eduard Atuesta Orlando City Active 113 / 115 40% 2 10.10.2026 -
Christian Ebere Cruz Azul Active 114 / 126 40% 1 10.10.2026 -
Tomás Galván River Plate Active 117 / 122 40% 1 09.10.2026 -
Willer Ditta Cruz Azul Active 125 / 142 40% 2 06.10.2026 -
Jhojan Valencia Universidad Catolica Active 132 / 118 40% 1 06.10.2026 -
Uriel Antuna Pumas UNAM Active 138 / 130 40% 2 05.10.2026 -
Iqraam Rayners Mamelodi Sundowns Active 113 / 126 40% 2 03.10.2026 -
Alex Valera Universitario Active 122 / 131 40% 6 30.09.2026 -
Eden Januzaj KV Oostende Active 107 / 123 40% 2 29.09.2026 -
Marcelo Flores Tigres Active 119 / 113 40% 1 28.09.2026 -
Ignacio Yepez Cerrito Active 123 / 110 40% 1 28.09.2026 -
Jhojan Julio Queretaro Active 111 / 114 40% 1 24.09.2026 -
Guilherme Houston Dynamo Active 122 / 132 40% 1 16.09.2026 -
Orbelín Pineda Monterrey Active 129 / 144 40% 1 15.09.2026 -
Juan Pablo Domínguez Leon Active 120 / 116 40% 1 15.09.2026 -
Juninho Pumas UNAM Active 120 / 121 40% 2 11.09.2026 -
Dejan Joveljić Seattle Sounders Active 115 / 136 40% 1 09.09.2026 -
Agustín Palavecino Cruz Azul Active 129 / 124 40% 1 09.09.2026 -
Franco Pardo Santos Laguna Active 130 / 134 40% 1 08.09.2026 -
Cheikh Sabaly Vancouver Whitecaps Active 115 / 117 40% 1 04.09.2026 -
Pep Biel Charlotte Football Club Active 141 / 120 40% 1 04.09.2026 -
Josh Sargent Toronto FC Active 132 / 135 40% 2 31.08.2026 -
Dániel Gazdag New England Revolution Active 132 / 136 40% 1 29.08.2026 -
Ismael Díaz Leon Active 127 / 121 40% 4 25.08.2026 -
Rodrigo Echeverría Leon Active 131 / 133 40% 1 24.08.2026 -
Iván Angulo Orlando City Active 125 / 120 40% 1 24.08.2026 -
Florián Monzón Atlas Active 117 / 131 40% 1 19.08.2026 -
Jordan Morris Seattle Sounders Active 120 / 128 40% 1 19.08.2026 -
Leandro Trossard Besiktas Active 157 / 147 40% 1 17.08.2026 -
Carlos Rotondi Cruz Azul Active 131 / 131 40% 1 17.08.2026 -
Hugo Cuypers Monterrey Active 113 / 122 40% 1 13.08.2026 -
Breel Embolo Atlanta United FC Active 131 / 141 40% 1 11.08.2026 -
Rubén Duarte Pumas UNAM Active 118 / 123 40% 1 11.08.2026 -
Jhohan Romaña Leon Active 117 / 137 40% 1 11.08.2026 -
Ignacio Aliseda Cerro Porteno Active 115 / 120 40% 1 11.08.2026 -
Iván Rodríguez Leon Active 118 / 120 40% 2 10.08.2026 -
Juan Pablo Vargas Puebla Active 116 / 128 40% 1 10.08.2026 -
Alan Mozo Pachuca Active 126 / 126 40% 1 07.08.2026 -
César Inga Universitario Active 118 / 124 40% 1 07.08.2026 -
Pedro Vite Pumas UNAM Active 126 / 118 40% 1 06.08.2026 -
Adonis Frías Atlas Active 138 / 122 40% 1 06.08.2026 -
Cristian Calderón Pumas UNAM Active 114 / 124 40% 1 04.08.2026 -
Jorge Rodríguez Monterrey Active 117 / 126 40% 1 04.08.2026 -
Hugo Guillamón Gijón Active 108 / 143 40% 1 02.08.2026 -